Time;durP1;ratioP1;P1;durP2;ratioP2;P2;SDS_P1;SDS_P2;PMS_P1;PMS_P2;Temp;Humidity;BMP_temperature;BMP_pressure;BME280_temperature;BME280_humidity;BME280_pressure;Samples;Min_cycle;Max_cycle;Signal;HPM_P1;HPM_P2
2022/08/26 00:02:10;;;;;;;19.83;14.13;;;;;;;;;;5017000;28;20120;-76
2022/08/26 00:04:35;;;;;;;20.83;12.07;;;;;;;;;;5020789;28;20087;-76
2022/08/26 00:07:01;;;;;;;16.85;11.73;;;;;;;;;;5015725;28;20037;-75
2022/08/26 00:09:26;;;;;;;17.98;12.00;;;;;;;;;;5020661;28;20357;-76
2022/08/26 00:11:52;;;;;;;19.23;13.07;;;;;;;;;;5017109;28;20112;-75
2022/08/26 00:14:18;;;;;;;28.35;14.75;;;;;;;;;;5015854;28;20025;-75
2022/08/26 00:16:43;;;;;;;18.15;13.13;;;;;;;;;;5023896;28;20014;-75
2022/08/26 00:19:09;;;;;;;20.23;13.23;;;;;;;;;;5011168;28;20024;-75
2022/08/26 00:21:34;;;;;;;20.85;11.82;;;;;;;;;;5024671;28;20051;-75
2022/08/26 00:23:59;;;;;;;20.15;12.43;;;;;;;;;;5025572;28;20029;-76
2022/08/26 00:26:25;;;;;;;18.42;11.90;;;;;;;;;;5020802;28;20487;-75
2022/08/26 00:28:50;;;;;;;21.60;11.85;;;;;;;;;;5017059;28;21751;-77
2022/08/26 00:31:15;;;;;;;16.70;11.52;;;;;;;;;;5023454;28;20108;-75
2022/08/26 00:33:41;;;;;;;16.25;11.32;;;;;;;;;;5019156;28;20077;-75
2022/08/26 00:36:08;;;;;;;24.20;12.93;;;;;;;;;;4992984;28;20338;-75
2022/08/26 00:38:34;;;;;;;14.60;11.82;;;;;;;;;;5007590;28;20040;-75
2022/08/26 00:40:59;;;;;;;17.88;11.65;;;;;;;;;;5024401;28;20026;-75
2022/08/26 00:43:25;;;;;;;16.30;11.13;;;;;;;;;;5024103;28;20060;-75
2022/08/26 00:45:57;;;;;;;17.70;11.55;;;;;;;;;;5024870;28;20483;-74
2022/08/26 00:48:24;;;;;;;16.98;11.57;;;;;;;;;;5013952;28;20079;-76
2022/08/26 00:50:53;;;;;;;22.25;12.50;;;;;;;;;;5025639;28;20017;-75
2022/08/26 00:53:22;;;;;;;17.08;11.98;;;;;;;;;;5024996;28;20037;-76
2022/08/26 00:55:51;;;;;;;21.90;11.70;;;;;;;;;;5013376;28;20029;-75
2022/08/26 00:58:17;;;;;;;;;;;;;;;;;;5023255;28;20025;-75
2022/08/26 01:00:42;;;;;;;20.40;12.23;;;;;;;;;;5023197;28;19920;-75
2022/08/26 01:03:08;;;;;;;17.70;12.45;;;;;;;;;;5023438;28;20029;-75
2022/08/26 01:05:33;;;;;;;20.77;12.75;;;;;;;;;;5023537;28;20033;-75
2022/08/26 01:07:59;;;;;;;22.17;13.50;;;;;;;;;;5011036;28;20029;-74
2022/08/26 01:10:28;;;;;;;22.52;13.23;;;;;;;;;;5014353;28;20091;-74
2022/08/26 01:12:58;;;;;;;18.20;12.70;;;;;;;;;;5011763;28;20399;-77
2022/08/26 01:15:30;;;;;;;19.15;12.65;;;;;;;;;;5022763;28;20479;-76
2022/08/26 01:17:57;;;;;;;21.15;13.63;;;;;;;;;;5007079;28;20029;-77
2022/08/26 01:20:41;;;;;;;24.10;13.48;;;;;;;;;;5023701;28;20025;-76
2022/08/26 01:23:08;;;;;;;20.63;13.95;;;;;;;;;;5022751;28;20056;-74
2022/08/26 01:25:35;;;;;;;22.63;14.15;;;;;;;;;;5006531;28;20034;-75
2022/08/26 01:28:04;;;;;;;17.00;13.02;;;;;;;;;;5010181;28;20444;-74
2022/08/26 01:30:30;;;;;;;20.50;14.27;;;;;;;;;;5022822;28;20056;-75
2022/08/26 01:32:57;;;;;;;20.02;13.90;;;;;;;;;;5022848;28;20555;-75
2022/08/26 01:35:22;;;;;;;19.52;13.00;;;;;;;;;;5008362;28;20357;-74
2022/08/26 01:37:52;;;;;;;19.27;14.07;;;;;;;;;;5023386;28;20027;-73
2022/08/26 01:40:17;;;;;;;;;;;;;;;;;;5026279;28;20104;-76
2022/08/26 01:42:43;;;;;;;25.10;15.00;;;;;;;;;;5020547;28;20403;-74
2022/08/26 01:45:13;;;;;;;24.95;15.52;;;;;;;;;;5014237;28;20033;-75
2022/08/26 01:47:40;;;;;;;22.00;13.80;;;;;;;;;;5009422;28;20022;-74
2022/08/26 01:50:17;;;;;;;18.52;13.93;;;;;;;;;;5014200;28;20574;-74
2022/08/26 01:52:43;;;;;;;19.83;15.13;;;;;;;;;;5019451;28;20791;-74
2022/08/26 01:55:10;;;;;;;19.50;14.18;;;;;;;;;;5022997;28;20083;-75
2022/08/26 01:57:35;;;;;;;24.40;15.63;;;;;;;;;;5022220;28;20433;-76
2022/08/26 02:00:07;;;;;;;20.02;14.60;;;;;;;;;;5007306;28;20079;-74
2022/08/26 02:02:32;;;;;;;17.55;13.18;;;;;;;;;;5009573;28;20124;-75
2022/08/26 02:05:00;;;;;;;18.70;14.13;;;;;;;;;;5021775;28;20112;-76
2022/08/26 02:07:26;;;;;;;19.40;13.50;;;;;;;;;;5022516;28;20029;-74
2022/08/26 02:09:52;;;;;;;19.10;13.45;;;;;;;;;;5021309;28;20037;-74
2022/08/26 02:12:18;;;;;;;22.05;15.07;;;;;;;;;;5009003;28;20090;-75
2022/08/26 02:14:49;;;;;;;17.20;13.88;;;;;;;;;;5007893;28;20037;-76
2022/08/26 02:17:15;;;;;;;19.67;14.13;;;;;;;;;;5008608;28;20115;-75
2022/08/26 02:19:44;;;;;;;17.88;13.73;;;;;;;;;;5024000;28;20104;-75
2022/08/26 02:22:12;;;;;;;22.98;13.85;;;;;;;;;;5024512;28;20027;-74
2022/08/26 02:24:58;;;;;;;16.00;12.80;;;;;;;;;;5020951;28;20034;-74
2022/08/26 02:27:25;;;;;;;19.27;14.00;;;;;;;;;;5014694;28;20129;-76
2022/08/26 02:29:52;;;;;;;22.23;13.60;;;;;;;;;;5015036;28;20037;-74
2022/08/26 02:32:17;;;;;;;24.02;16.63;;;;;;;;;;5019910;28;20048;-76
2022/08/26 02:34:44;;;;;;;28.20;18.58;;;;;;;;;;5021988;28;20026;-74
2022/08/26 02:37:10;;;;;;;18.95;15.23;;;;;;;;;;5016611;28;20022;-74
2022/08/26 02:39:37;;;;;;;20.17;13.85;;;;;;;;;;5016128;28;20032;-74
2022/08/26 02:42:03;;;;;;;20.65;15.90;;;;;;;;;;5021962;28;20057;-74
2022/08/26 02:44:28;;;;;;;18.60;14.60;;;;;;;;;;5010444;28;20037;-75
2022/08/26 02:46:54;;;;;;;23.05;15.73;;;;;;;;;;5008639;28;20360;-74
2022/08/26 02:49:20;;;;;;;18.60;14.60;;;;;;;;;;5017360;28;20497;-73
2022/08/26 02:51:47;;;;;;;18.52;14.77;;;;;;;;;;5021452;28;20032;-76
2022/08/26 02:54:12;;;;;;;23.23;16.42;;;;;;;;;;5021623;28;20448;-75
2022/08/26 02:56:38;;;;;;;22.60;16.65;;;;;;;;;;5025914;28;20022;-74
2022/08/26 02:59:03;;;;;;;26.65;16.85;;;;;;;;;;5014878;28;20017;-76
2022/08/26 03:01:31;;;;;;;21.65;16.90;;;;;;;;;;5014334;28;20060;-74
2022/08/26 03:03:56;;;;;;;21.70;16.58;;;;;;;;;;5021496;28;20427;-76
2022/08/26 03:06:23;;;;;;;20.00;15.77;;;;;;;;;;5020058;28;20055;-74
2022/08/26 03:08:48;;;;;;;20.17;16.40;;;;;;;;;;5021106;28;20448;-76
2022/08/26 03:11:14;;;;;;;21.80;15.40;;;;;;;;;;5028205;28;20064;-75
2022/08/26 03:13:40;;;;;;;25.05;15.18;;;;;;;;;;5026062;28;20061;-74
2022/08/26 03:16:05;;;;;;;21.33;15.60;;;;;;;;;;5014865;28;20636;-74
2022/08/26 03:18:31;;;;;;;24.30;16.10;;;;;;;;;;5017786;28;20033;-74
2022/08/26 03:20:56;;;;;;;22.70;16.65;;;;;;;;;;5026919;28;20100;-75
2022/08/26 03:23:22;;;;;;;20.58;16.02;;;;;;;;;;5024528;28;20444;-74
2022/08/26 03:25:51;;;;;;;23.30;15.55;;;;;;;;;;5016917;28;20079;-74
2022/08/26 03:28:17;;;;;;;;;;;;;;;;;;5025370;28;20441;-72
2022/08/26 03:30:43;;;;;;;21.05;15.02;;;;;;;;;;5020573;28;19917;-74
2022/08/26 03:33:10;;;;;;;21.50;15.43;;;;;;;;;;5010250;28;20025;-74
2022/08/26 03:35:36;;;;;;;18.23;14.98;;;;;;;;;;5012389;28;20025;-75
2022/08/26 03:38:02;;;;;;;22.35;15.00;;;;;;;;;;5010591;28;20029;-72
2022/08/26 03:40:28;;;;;;;24.00;15.02;;;;;;;;;;5010033;28;20018;-75
2022/08/26 03:42:53;;;;;;;16.63;14.05;;;;;;;;;;5010155;28;20052;-73
2022/08/26 03:45:19;;;;;;;15.75;13.85;;;;;;;;;;5010635;28;20090;-75
2022/08/26 03:47:45;;;;;;;20.48;14.48;;;;;;;;;;5013774;28;20021;-75
2022/08/26 03:50:13;;;;;;;19.58;14.57;;;;;;;;;;5025404;28;20061;-76
2022/08/26 03:52:39;;;;;;;18.17;14.90;;;;;;;;;;5025471;28;20014;-74
2022/08/26 03:55:05;;;;;;;20.73;14.85;;;;;;;;;;5025851;28;20032;-75
2022/08/26 03:57:31;;;;;;;17.83;14.27;;;;;;;;;;5023267;28;21266;-75
2022/08/26 03:59:56;;;;;;;17.35;14.05;;;;;;;;;;5014910;28;20025;-75
2022/08/26 04:02:22;;;;;;;17.10;13.02;;;;;;;;;;5011017;28;20083;-75
2022/08/26 04:04:47;;;;;;;19.60;14.43;;;;;;;;;;5012136;28;20056;-76
2022/08/26 04:07:12;;;;;;;19.15;14.00;;;;;;;;;;5010759;28;20337;-74
2022/08/26 04:09:38;;;;;;;17.20;13.98;;;;;;;;;;5013693;28;20457;-74
2022/08/26 04:12:04;;;;;;;18.52;13.95;;;;;;;;;;5019986;28;20033;-74
2022/08/26 04:14:30;;;;;;;22.55;15.50;;;;;;;;;;4992858;28;20072;-76
2022/08/26 04:16:56;;;;;;;22.63;16.45;;;;;;;;;;5010389;28;20464;-75
2022/08/26 04:19:22;;;;;;;21.85;16.55;;;;;;;;;;5010514;28;20027;-77
2022/08/26 04:21:50;;;;;;;21.27;15.85;;;;;;;;;;5010741;28;20441;-74
2022/08/26 04:24:15;;;;;;;22.67;15.57;;;;;;;;;;5004788;28;20049;-76
2022/08/26 04:26:41;;;;;;;21.98;15.15;;;;;;;;;;5025082;28;20025;-73
2022/08/26 04:29:09;;;;;;;20.63;15.18;;;;;;;;;;5024162;28;20022;-73
2022/08/26 04:31:35;;;;;;;21.10;13.90;;;;;;;;;;5024112;28;20147;-75
2022/08/26 04:34:01;;;;;;;20.95;14.27;;;;;;;;;;5026633;28;20033;-76
2022/08/26 04:36:26;;;;;;;20.23;14.13;;;;;;;;;;5024598;28;20039;-76
2022/08/26 04:38:51;;;;;;;20.02;14.40;;;;;;;;;;5026527;28;20108;-75
2022/08/26 04:41:18;;;;;;;19.98;13.88;;;;;;;;;;5024528;28;20447;-77
2022/08/26 04:43:43;;;;;;;24.40;15.20;;;;;;;;;;5013866;28;20037;-78
2022/08/26 04:46:10;;;;;;;17.42;14.68;;;;;;;;;;5021618;28;20095;-78
2022/08/26 04:48:36;;;;;;;18.02;14.77;;;;;;;;;;5022879;28;20056;-78
2022/08/26 04:51:01;;;;;;;19.02;15.52;;;;;;;;;;5023849;28;20416;-78
2022/08/26 04:53:27;;;;;;;24.73;16.20;;;;;;;;;;5024763;28;20503;-77
2022/08/26 04:55:53;;;;;;;22.02;16.80;;;;;;;;;;5025622;28;20101;-77
2022/08/26 04:58:20;;;;;;;22.27;17.15;;;;;;;;;;5025668;28;20033;-76
2022/08/26 05:00:45;;;;;;;26.25;17.92;;;;;;;;;;5024986;28;20496;-74
2022/08/26 05:03:11;;;;;;;24.33;18.10;;;;;;;;;;5024466;28;20071;-75
2022/08/26 05:05:38;;;;;;;29.23;18.27;;;;;;;;;;5025386;28;20400;-76
2022/08/26 05:08:03;;;;;;;28.45;18.92;;;;;;;;;;5023670;28;20022;-74
2022/08/26 05:10:29;;;;;;;28.48;21.63;;;;;;;;;;5022153;28;20017;-76
2022/08/26 05:12:54;;;;;;;27.95;21.38;;;;;;;;;;5023394;28;20056;-76
2022/08/26 05:15:19;;;;;;;33.05;21.38;;;;;;;;;;5025343;28;20025;-75
2022/08/26 05:17:45;;;;;;;30.00;22.02;;;;;;;;;;5024430;28;20340;-74
2022/08/26 05:20:10;;;;;;;28.75;21.98;;;;;;;;;;5018063;28;21728;-75
2022/08/26 05:22:35;;;;;;;31.38;22.60;;;;;;;;;;5020069;28;20442;-76
2022/08/26 05:25:01;;;;;;;30.60;23.00;;;;;;;;;;5026812;28;20045;-76
2022/08/26 05:27:26;;;;;;;28.65;22.17;;;;;;;;;;5023974;28;20048;-75
2022/08/26 05:29:55;;;;;;;26.83;21.95;;;;;;;;;;5024645;28;20036;-76
2022/08/26 05:32:20;;;;;;;27.67;21.77;;;;;;;;;;5023030;28;20086;-75
2022/08/26 05:34:46;;;;;;;26.63;21.65;;;;;;;;;;5022759;28;20376;-75
2022/08/26 05:37:11;;;;;;;25.25;20.55;;;;;;;;;;5024071;28;20021;-74
2022/08/26 05:39:37;;;;;;;27.50;20.38;;;;;;;;;;5022805;28;20021;-75
2022/08/26 05:42:04;;;;;;;25.33;19.10;;;;;;;;;;5022155;28;20041;-75
2022/08/26 05:44:29;;;;;;;24.27;20.65;;;;;;;;;;5023382;28;20025;-75
2022/08/26 05:46:55;;;;;;;26.90;19.90;;;;;;;;;;5023749;28;20444;-76
2022/08/26 05:49:20;;;;;;;28.35;21.17;;;;;;;;;;5020187;28;20033;-75
2022/08/26 05:51:45;;;;;;;24.77;20.10;;;;;;;;;;5023416;28;20029;-75
2022/08/26 05:54:11;;;;;;;26.40;19.35;;;;;;;;;;5023148;28;20030;-75
2022/08/26 05:56:38;;;;;;;22.15;16.83;;;;;;;;;;5023600;28;20014;-74
2022/08/26 05:59:03;;;;;;;23.98;17.20;;;;;;;;;;5019378;28;20093;-75
2022/08/26 06:01:28;;;;;;;19.33;15.70;;;;;;;;;;5009582;28;20168;-76
2022/08/26 06:03:56;;;;;;;21.65;16.08;;;;;;;;;;5006539;28;20022;-74
2022/08/26 06:06:25;;;;;;;27.35;17.02;;;;;;;;;;5012156;28;20475;-75
2022/08/26 06:08:51;;;;;;;28.25;17.50;;;;;;;;;;5008515;28;20365;-75
2022/08/26 06:11:17;;;;;;;32.55;15.45;;;;;;;;;;5019912;28;22849;-74
2022/08/26 06:13:43;;;;;;;24.70;15.52;;;;;;;;;;5020948;28;20059;-74
2022/08/26 06:16:10;;;;;;;25.90;13.98;;;;;;;;;;5021548;28;20109;-75
2022/08/26 06:18:37;;;;;;;28.33;15.13;;;;;;;;;;5022142;28;20033;-74
2022/08/26 06:21:14;;;;;;;29.83;15.63;;;;;;;;;;5022159;28;20048;-74
2022/08/26 06:26:25;;;;;;;22.73;12.23;;;;;;;;;;5020910;28;20104;-76
2022/08/26 06:28:50;;;;;;;18.10;11.93;;;;;;;;;;5022904;28;20045;-75
2022/08/26 06:31:15;;;;;;;20.48;12.27;;;;;;;;;;5019727;28;20034;-75
2022/08/26 06:33:41;;;;;;;26.92;12.05;;;;;;;;;;5024013;28;20114;-74
2022/08/26 06:36:07;;;;;;;16.52;11.73;;;;;;;;;;5022599;28;20686;-76
2022/08/26 06:38:32;;;;;;;20.10;13.90;;;;;;;;;;5021645;28;20032;-76
2022/08/26 06:40:58;;;;;;;22.80;14.38;;;;;;;;;;5021515;28;20448;-75
2022/08/26 06:43:25;;;;;;;20.58;14.48;;;;;;;;;;4980859;28;1261538;-75
2022/08/26 06:45:50;;;;;;;19.30;13.27;;;;;;;;;;5021682;28;20022;-76
2022/08/26 06:48:17;;;;;;;30.98;14.60;;;;;;;;;;5015738;28;20033;-75
2022/08/26 06:50:43;;;;;;;24.25;14.38;;;;;;;;;;5008206;28;20032;-75
2022/08/26 06:53:09;;;;;;;24.95;14.55;;;;;;;;;;5006480;28;21490;-76
2022/08/26 06:55:42;;;;;;;21.73;14.43;;;;;;;;;;5005892;28;20025;-76
2022/08/26 06:58:08;;;;;;;22.08;14.75;;;;;;;;;;5008335;28;20033;-77
2022/08/26 07:00:34;;;;;;;20.90;14.43;;;;;;;;;;5007555;28;20033;-75
2022/08/26 07:02:59;;;;;;;23.35;15.20;;;;;;;;;;5007141;28;20112;-75
2022/08/26 07:05:25;;;;;;;19.60;14.18;;;;;;;;;;5008187;28;20159;-76
2022/08/26 07:07:51;;;;;;;20.35;14.45;;;;;;;;;;5006454;28;20041;-76
2022/08/26 07:10:17;;;;;;;20.67;13.98;;;;;;;;;;5006104;28;20444;-76
2022/08/26 07:12:42;;;;;;;22.67;15.10;;;;;;;;;;5007472;28;20066;-77
2022/08/26 07:15:09;;;;;;;21.83;14.77;;;;;;;;;;5006994;28;20033;-76
2022/08/26 07:17:34;;;;;;;19.58;15.15;;;;;;;;;;5008339;28;20548;-75
2022/08/26 07:19:59;;;;;;;21.55;14.38;;;;;;;;;;5007910;28;20116;-76
2022/08/26 07:22:25;;;;;;;20.00;14.52;;;;;;;;;;5008196;28;20169;-74
2022/08/26 07:24:50;;;;;;;22.15;13.32;;;;;;;;;;5009557;28;20330;-75
2022/08/26 07:27:16;;;;;;;26.45;13.57;;;;;;;;;;5008322;28;20025;-77
2022/08/26 07:29:42;;;;;;;23.67;13.52;;;;;;;;;;5014265;28;20123;-76
2022/08/26 07:32:08;;;;;;;16.20;14.00;;;;;;;;;;5007405;28;20021;-75
2022/08/26 07:34:36;;;;;;;21.23;14.60;;;;;;;;;;5007141;28;20025;-76
2022/08/26 07:37:02;;;;;;;19.42;13.75;;;;;;;;;;5008225;28;20470;-74
2022/08/26 07:39:27;;;;;;;18.13;14.05;;;;;;;;;;5006419;28;20032;-77
2022/08/26 07:41:52;;;;;;;16.73;12.50;;;;;;;;;;5008509;28;20135;-77
2022/08/26 07:44:18;;;;;;;16.90;13.35;;;;;;;;;;5013482;28;20037;-79
2022/08/26 07:46:44;;;;;;;21.77;12.95;;;;;;;;;;5028056;28;20033;-77
2022/08/26 07:49:10;;;;;;;22.52;12.68;;;;;;;;;;5024217;28;20393;-75
2022/08/26 07:51:36;;;;;;;16.98;11.68;;;;;;;;;;5026065;28;20098;-78
2022/08/26 07:54:02;;;;;;;19.23;12.18;;;;;;;;;;5009183;28;20033;-75
2022/08/26 07:56:28;;;;;;;16.33;11.45;;;;;;;;;;5024083;28;20033;-76
2022/08/26 07:58:53;;;;;;;17.45;10.70;;;;;;;;;;5024592;28;20152;-75
2022/08/26 08:01:19;;;;;;;20.27;11.88;;;;;;;;;;5024281;28;20030;-74
2022/08/26 08:03:45;;;;;;;16.45;10.75;;;;;;;;;;5024559;28;20068;-77
2022/08/26 08:06:10;;;;;;;18.42;11.55;;;;;;;;;;5024906;28;20061;-76
2022/08/26 08:08:35;;;;;;;18.70;10.45;;;;;;;;;;5024005;28;20021;-75
2022/08/26 08:11:01;;;;;;;16.90;9.80;;;;;;;;;;5024968;28;20017;-76
2022/08/26 08:13:27;;;;;;;13.70;10.55;;;;;;;;;;5014117;28;20021;-76
2022/08/26 08:15:52;;;;;;;16.90;9.60;;;;;;;;;;5025167;28;20349;-77
2022/08/26 08:18:18;;;;;;;18.90;10.52;;;;;;;;;;5018101;28;20037;-78
2022/08/26 08:20:43;;;;;;;18.55;10.38;;;;;;;;;;5011253;28;20445;-78
2022/08/26 08:23:08;;;;;;;19.08;9.25;;;;;;;;;;5010530;28;20041;-75
2022/08/26 08:25:34;;;;;;;18.35;9.38;;;;;;;;;;5022234;28;20028;-78
2022/08/26 08:27:59;;;;;;;20.35;9.20;;;;;;;;;;5025033;28;20463;-77
2022/08/26 08:30:25;;;;;;;15.48;9.48;;;;;;;;;;5026151;28;20029;-77
2022/08/26 08:32:51;;;;;;;13.63;8.85;;;;;;;;;;5027777;28;20030;-76
2022/08/26 08:35:17;;;;;;;18.15;9.15;;;;;;;;;;5011792;28;20010;-76
2022/08/26 08:37:43;;;;;;;19.60;8.57;;;;;;;;;;5011360;28;20444;-77
2022/08/26 08:40:10;;;;;;;16.25;8.75;;;;;;;;;;5015760;28;20025;-77
2022/08/26 08:42:37;;;;;;;17.58;8.60;;;;;;;;;;5012954;28;20528;-76
2022/08/26 08:45:23;;;;;;;14.30;7.93;;;;;;;;;;5011781;28;20025;-76
2022/08/26 08:47:54;;;;;;;13.52;7.65;;;;;;;;;;5020937;28;20041;-77
2022/08/26 08:50:23;;;;;;;12.38;6.97;;;;;;;;;;5021775;28;20026;-76
2022/08/26 08:52:52;;;;;;;18.75;8.02;;;;;;;;;;5008369;28;20025;-74
2022/08/26 08:55:18;;;;;;;21.50;7.25;;;;;;;;;;5010202;28;20052;-78
2022/08/26 08:57:43;;;;;;;10.88;6.03;;;;;;;;;;5020457;28;20021;-76
2022/08/26 09:00:12;;;;;;;15.38;6.53;;;;;;;;;;5025214;28;20029;-77
2022/08/26 09:02:37;;;;;;;;;;;;;;;;;;5025114;28;20376;-76
2022/08/26 09:05:03;;;;;;;15.67;5.67;;;;;;;;;;5024020;28;19963;-76
2022/08/26 09:07:35;;;;;;;13.88;5.10;;;;;;;;;;5025414;28;20018;-76
2022/08/26 09:10:02;;;;;;;15.18;5.25;;;;;;;;;;5023755;28;20036;-77
2022/08/26 09:12:29;;;;;;;12.55;4.97;;;;;;;;;;5017530;28;20033;-75
2022/08/26 09:15:04;;;;;;;12.15;4.82;;;;;;;;;;5009347;28;20024;-77
2022/08/26 09:17:46;;;;;;;15.50;4.45;;;;;;;;;;5009657;28;20380;-76
2022/08/26 09:20:32;;;;;;;9.75;4.30;;;;;;;;;;5008884;28;20053;-75
2022/08/26 09:22:57;;;;;;;8.82;4.13;;;;;;;;;;5018240;28;20049;-77
2022/08/26 09:25:23;;;;;;;10.98;4.18;;;;;;;;;;5005095;28;20354;-76
2022/08/26 09:27:49;;;;;;;10.40;4.25;;;;;;;;;;5017896;28;20025;-75
2022/08/26 09:30:20;;;;;;;12.07;4.20;;;;;;;;;;5010524;28;20049;-76
2022/08/26 09:32:56;;;;;;;15.82;4.20;;;;;;;;;;5016910;28;20032;-74
2022/08/26 09:35:30;;;;;;;9.45;4.05;;;;;;;;;;5010659;28;20108;-76
2022/08/26 09:37:57;;;;;;;15.57;4.88;;;;;;;;;;5009085;28;20047;-77
2022/08/26 09:40:22;;;;;;;15.43;4.93;;;;;;;;;;5008653;28;20032;-76
2022/08/26 09:43:07;;;;;;;10.38;4.30;;;;;;;;;;5009053;28;20053;-77
2022/08/26 09:45:34;;;;;;;9.93;4.57;;;;;;;;;;5010860;28;20064;-76
2022/08/26 09:48:00;;;;;;;11.82;4.90;;;;;;;;;;5008707;28;20532;-77
2022/08/26 09:50:48;;;;;;;13.00;4.20;;;;;;;;;;5018070;28;20112;-76
2022/08/26 09:53:21;;;;;;;13.50;4.70;;;;;;;;;;5008748;28;20032;-77
2022/08/26 09:55:53;;;;;;;18.50;4.15;;;;;;;;;;5013609;28;20025;-78
2022/08/26 09:58:34;;;;;;;14.60;4.00;;;;;;;;;;5022427;28;20326;-76
2022/08/26 10:01:00;;;;;;;12.93;3.78;;;;;;;;;;5008304;28;20109;-77
2022/08/26 10:03:36;;;;;;;11.65;3.67;;;;;;;;;;5012094;28;20060;-77
2022/08/26 10:06:03;;;;;;;15.30;3.95;;;;;;;;;;5007670;28;20032;-77
2022/08/26 10:08:36;;;;;;;13.05;3.65;;;;;;;;;;5014509;28;20127;-75
2022/08/26 10:11:04;;;;;;;11.95;3.30;;;;;;;;;;5009101;28;20021;-76
2022/08/26 10:13:30;;;;;;;12.13;3.28;;;;;;;;;;5009852;28;20037;-76
2022/08/26 10:16:16;;;;;;;14.50;3.88;;;;;;;;;;5015589;28;20035;-76
2022/08/26 10:18:45;;;;;;;16.60;3.50;;;;;;;;;;5018189;28;20031;-76
2022/08/26 10:21:10;;;;;;;;;;;;;;;;;;5007905;28;20022;-77
2022/08/26 10:23:47;;;;;;;19.67;3.57;;;;;;;;;;5023409;28;19967;-76
2022/08/26 10:26:18;;;;;;;11.52;3.17;;;;;;;;;;5016318;28;20053;-77
2022/08/26 10:28:43;;;;;;;12.50;4.20;;;;;;;;;;5010055;28;21109;-78
2022/08/26 10:31:12;;;;;;;14.77;4.03;;;;;;;;;;5009977;28;20021;-76
2022/08/26 10:33:38;;;;;;;16.80;4.13;;;;;;;;;;5009602;28;20036;-76
2022/08/26 10:36:06;;;;;;;12.45;4.03;;;;;;;;;;5008314;28;20107;-76
2022/08/26 10:38:34;;;;;;;13.70;3.92;;;;;;;;;;5008153;28;20025;-76
2022/08/26 10:41:03;;;;;;;9.00;3.60;;;;;;;;;;5009050;28;20041;-77
2022/08/26 10:43:31;;;;;;;13.10;4.07;;;;;;;;;;5015294;28;20058;-77
2022/08/26 10:46:02;;;;;;;11.88;4.15;;;;;;;;;;5024409;28;20029;-79
2022/08/26 10:48:48;;;;;;;12.70;3.80;;;;;;;;;;5021676;28;20409;-79
2022/08/26 10:51:15;;;;;;;14.93;4.05;;;;;;;;;;5023760;28;20041;-78
2022/08/26 10:53:58;;;;;;;10.05;3.35;;;;;;;;;;5022896;28;20119;-75
2022/08/26 10:56:33;;;;;;;9.38;3.85;;;;;;;;;;5012937;28;20017;-76
2022/08/26 10:59:04;;;;;;;12.57;3.75;;;;;;;;;;5015840;28;20400;-76
2022/08/26 11:01:45;;;;;;;11.27;3.67;;;;;;;;;;5023395;28;20352;-77
2022/08/26 11:04:29;;;;;;;9.23;3.80;;;;;;;;;;5022625;28;20502;-76
2022/08/26 11:07:13;;;;;;;12.88;4.15;;;;;;;;;;5007091;28;20060;-77
2022/08/26 11:09:45;;;;;;;12.20;4.43;;;;;;;;;;5023308;28;20028;-77
2022/08/26 11:12:46;;;;;;;11.73;4.30;;;;;;;;;;5023399;28;20033;-79
2022/08/26 11:15:12;;;;;;;8.07;4.28;;;;;;;;;;5001308;28;20049;-78
2022/08/26 11:17:43;;;;;;;10.68;4.10;;;;;;;;;;5002891;28;20054;-75
2022/08/26 11:20:28;;;;;;;15.63;4.50;;;;;;;;;;5004595;28;20109;-78
2022/08/26 11:22:53;;;;;;;8.05;3.88;;;;;;;;;;5003840;28;20038;-77
2022/08/26 11:25:20;;;;;;;9.05;3.55;;;;;;;;;;4989833;28;20370;-77
2022/08/26 11:27:49;;;;;;;10.40;3.58;;;;;;;;;;4989204;28;20041;-77
2022/08/26 11:30:14;;;;;;;13.65;3.65;;;;;;;;;;4988953;28;20046;-78
2022/08/26 11:32:40;;;;;;;8.95;3.42;;;;;;;;;;4993130;28;20040;-78
2022/08/26 11:35:05;;;;;;;11.65;3.60;;;;;;;;;;4989416;28;20021;-76
2022/08/26 11:37:34;;;;;;;9.38;3.22;;;;;;;;;;4991392;28;20041;-76
2022/08/26 11:40:01;;;;;;;12.05;3.45;;;;;;;;;;4989896;28;20034;-77
2022/08/26 11:42:43;;;;;;;6.30;3.08;;;;;;;;;;4990037;28;20049;-78
2022/08/26 11:45:29;;;;;;;15.52;4.00;;;;;;;;;;4992951;28;20026;-76
2022/08/26 11:47:55;;;;;;;13.80;4.10;;;;;;;;;;4991154;28;20454;-78
2022/08/26 11:50:25;;;;;;;11.18;3.80;;;;;;;;;;4996221;28;20042;-76
2022/08/26 11:52:54;;;;;;;11.15;3.47;;;;;;;;;;5011998;28;20025;-78
2022/08/26 11:55:19;;;;;;;13.82;3.42;;;;;;;;;;5012188;28;20025;-77
2022/08/26 11:57:48;;;;;;;15.65;3.97;;;;;;;;;;5023149;28;20087;-77
2022/08/26 12:00:13;;;;;;;;;;;;;;;;;;5013320;28;20025;-78
2022/08/26 12:02:39;;;;;;;7.17;3.07;;;;;;;;;;5027672;28;19927;-78
2022/08/26 12:05:06;;;;;;;9.60;3.53;;;;;;;;;;5026909;28;20261;-78
2022/08/26 12:07:32;;;;;;;13.45;3.85;;;;;;;;;;5014105;28;20099;-76
2022/08/26 12:09:59;;;;;;;11.27;2.90;;;;;;;;;;5026814;28;20441;-77
2022/08/26 12:12:29;;;;;;;11.63;4.20;;;;;;;;;;5024679;28;20029;-77
2022/08/26 12:15:08;;;;;;;11.48;3.95;;;;;;;;;;5007360;28;20464;-78
2022/08/26 12:17:34;;;;;;;12.80;3.83;;;;;;;;;;5010974;28;20036;-76
2022/08/26 12:19:59;;;;;;;8.88;3.67;;;;;;;;;;5008087;28;20025;-77
2022/08/26 12:22:26;;;;;;;10.02;3.60;;;;;;;;;;5009752;28;20403;-76
2022/08/26 12:24:53;;;;;;;11.27;3.47;;;;;;;;;;5012796;28;20445;-78
2022/08/26 12:27:23;;;;;;;11.13;3.55;;;;;;;;;;5010829;28;20516;-77
2022/08/26 12:30:03;;;;;;;7.40;3.00;;;;;;;;;;5011294;28;20065;-76
2022/08/26 12:32:33;;;;;;;10.85;3.03;;;;;;;;;;5009727;28;20032;-78
2022/08/26 12:35:01;;;;;;;16.30;3.90;;;;;;;;;;5010394;28;20025;-77
2022/08/26 12:37:26;;;;;;;8.98;3.35;;;;;;;;;;5009645;28;20436;-77
2022/08/26 12:39:52;;;;;;;10.20;3.40;;;;;;;;;;5008851;28;20037;-78
2022/08/26 12:42:18;;;;;;;13.68;3.35;;;;;;;;;;5014122;28;20084;-78
2022/08/26 12:44:47;;;;;;;10.38;3.30;;;;;;;;;;5009008;28;20060;-77
2022/08/26 12:47:15;;;;;;;9.98;3.20;;;;;;;;;;5009165;28;20434;-77
2022/08/26 12:49:41;;;;;;;14.40;3.83;;;;;;;;;;5007426;28;20053;-77
2022/08/26 12:52:28;;;;;;;10.35;3.47;;;;;;;;;;5009644;28;20111;-79
2022/08/26 12:55:01;;;;;;;9.10;3.63;;;;;;;;;;5007183;28;20056;-78
2022/08/26 12:57:36;;;;;;;7.40;3.25;;;;;;;;;;5008397;28;20033;-77
2022/08/26 13:00:20;;;;;;;12.63;2.78;;;;;;;;;;5006438;28;20324;-78
2022/08/26 13:02:45;;;;;;;12.35;3.28;;;;;;;;;;5007563;28;20124;-75
2022/08/26 13:05:18;;;;;;;15.15;3.67;;;;;;;;;;5007876;28;20117;-76
2022/08/26 13:08:04;;;;;;;8.77;2.88;;;;;;;;;;5005014;28;20029;-77
2022/08/26 13:10:34;;;;;;;14.82;3.30;;;;;;;;;;5007027;28;20079;-75
2022/08/26 13:12:59;;;;;;;12.88;3.55;;;;;;;;;;5007939;28;20632;-78
2022/08/26 13:15:24;;;;;;;11.30;3.30;;;;;;;;;;5006682;28;20039;-77
2022/08/26 13:17:50;;;;;;;11.43;3.78;;;;;;;;;;5007252;28;20021;-78
2022/08/26 13:20:16;;;;;;;15.40;3.10;;;;;;;;;;5005347;28;20109;-78
2022/08/26 13:22:41;;;;;;;9.98;2.90;;;;;;;;;;5006774;28;20038;-77
2022/08/26 13:25:06;;;;;;;9.95;3.25;;;;;;;;;;5007889;28;20445;-77
2022/08/26 13:27:32;;;;;;;9.35;3.17;;;;;;;;;;5007859;28;20472;-77
2022/08/26 13:29:58;;;;;;;11.02;3.22;;;;;;;;;;5006766;28;20456;-76
2022/08/26 13:32:23;;;;;;;13.63;3.88;;;;;;;;;;5011812;28;20036;-75
2022/08/26 13:34:50;;;;;;;15.30;3.60;;;;;;;;;;5009874;28;20345;-75
2022/08/26 13:37:15;;;;;;;6.53;3.03;;;;;;;;;;5009325;28;20061;-77
2022/08/26 13:39:41;;;;;;;12.93;3.35;;;;;;;;;;5009261;28;20071;-81
2022/08/26 13:42:07;;;;;;;13.68;3.00;;;;;;;;;;5009066;28;20049;-77
2022/08/26 13:44:32;;;;;;;10.55;3.15;;;;;;;;;;5007839;28;20022;-77
2022/08/26 13:46:58;;;;;;;16.27;3.28;;;;;;;;;;5008597;28;20036;-79
2022/08/26 13:49:23;;;;;;;13.80;3.47;;;;;;;;;;5008672;28;20044;-75
2022/08/26 13:51:49;;;;;;;10.25;3.63;;;;;;;;;;5007097;28;20021;-78
2022/08/26 13:54:14;;;;;;;9.70;3.17;;;;;;;;;;5006698;28;20083;-77
2022/08/26 13:56:39;;;;;;;10.23;3.33;;;;;;;;;;5009327;28;20032;-78
2022/08/26 13:59:05;;;;;;;10.95;3.38;;;;;;;;;;5017227;28;20528;-76
2022/08/26 14:01:31;;;;;;;7.97;3.70;;;;;;;;;;5016156;28;20096;-79
2022/08/26 14:03:57;;;;;;;11.77;3.40;;;;;;;;;;5006692;28;20124;-76
2022/08/26 14:06:22;;;;;;;13.85;4.03;;;;;;;;;;5006935;28;20030;-77
2022/08/26 14:08:48;;;;;;;14.27;3.35;;;;;;;;;;5006945;28;20439;-77
2022/08/26 14:11:13;;;;;;;12.68;3.38;;;;;;;;;;5009137;28;20025;-76
2022/08/26 14:13:39;;;;;;;9.85;3.63;;;;;;;;;;5007783;28;20025;-76
2022/08/26 14:16:07;;;;;;;11.68;3.42;;;;;;;;;;5007598;28;20032;-78
2022/08/26 14:18:34;;;;;;;17.08;3.72;;;;;;;;;;5006929;28;20041;-78
2022/08/26 14:21:00;;;;;;;13.63;3.13;;;;;;;;;;5006976;28;20063;-77
2022/08/26 14:23:26;;;;;;;9.82;3.78;;;;;;;;;;5007315;28;20045;-79
2022/08/26 14:25:51;;;;;;;12.80;3.55;;;;;;;;;;5007685;28;20113;-78
2022/08/26 14:28:17;;;;;;;17.98;3.55;;;;;;;;;;5008529;28;20400;-76
2022/08/26 14:30:44;;;;;;;10.40;3.08;;;;;;;;;;5009984;28;20410;-75
2022/08/26 14:33:11;;;;;;;13.43;3.15;;;;;;;;;;5007270;28;20035;-77